Time;durP1;ratioP1;P1;durP2;ratioP2;P2;SDS_P1;SDS_P2;PMS_P1;PMS_P2;Temp;Humidity;BMP_temperature;BMP_pressure;BME280_temperature;BME280_humidity;BME280_pressure;Samples;Min_cycle;Max_cycle;Signal;HPM_P1;HPM_P2
2023/03/24 00:01:57;;;;;;;35.53;15.48;;;;;;;9.95;65.38;95289.78;4971588;28;20048;-77
2023/03/24 00:04:24;;;;;;;31.23;14.35;;;;;;;10.22;64.93;95340.63;4969039;28;20027;-76
2023/03/24 00:06:52;;;;;;;27.08;13.98;;;;;;;10.16;64.63;95336.38;4972412;28;20482;-77
2023/03/24 00:09:19;;;;;;;31.50;14.05;;;;;;;10.19;64.96;95340.41;4967908;28;20129;-77
2023/03/24 00:11:46;;;;;;;27.67;14.88;;;;;;;10.12;65.06;95338.00;4977422;28;20560;-77
2023/03/24 00:14:17;;;;;;;28.90;14.77;;;;;;;9.78;65.09;95286.59;4972811;28;20100;-77
2023/03/24 00:16:44;;;;;;;25.08;15.13;;;;;;;10.06;65.22;95328.47;4970026;28;20034;-77
2023/03/24 00:19:12;;;;;;;30.35;14.80;;;;;;;10.08;65.23;95337.72;4980330;28;20043;-77
2023/03/24 00:21:41;;;;;;;30.20;14.57;;;;;;;9.96;65.24;95339.84;4972252;28;20088;-77
2023/03/24 00:24:07;;;;;;;34.40;15.07;;;;;;;9.51;65.42;95300.09;4969945;28;20571;-77
2023/03/24 00:26:36;;;;;;;31.48;15.45;;;;;;;9.57;65.91;95314.94;4974569;28;20034;-77
2023/03/24 00:29:04;;;;;;;25.45;14.00;;;;;;;9.59;66.08;95302.22;4972487;28;20092;-77
2023/03/24 00:31:32;;;;;;;26.73;15.07;;;;;;;9.76;65.75;95337.19;4972027;28;20043;-78
2023/03/24 00:34:01;;;;;;;29.08;14.68;;;;;;;9.79;65.90;95334.00;4974506;28;20046;-77
2023/03/24 00:36:29;;;;;;;26.50;15.18;;;;;;;9.76;65.54;95339.06;4974703;28;20098;-77
2023/03/24 00:38:55;;;;;;;25.58;14.98;;;;;;;9.40;65.29;95291.34;4973282;28;20031;-77
2023/03/24 00:41:25;;;;;;;28.77;15.15;;;;;;;9.52;66.12;95320.22;4979943;28;20117;-77
2023/03/24 00:43:55;;;;;;;26.05;14.20;;;;;;;9.65;65.76;95335.59;4976439;28;20042;-77
2023/03/24 00:46:27;;;;;;;24.35;14.63;;;;;;;9.60;65.57;95330.28;4973136;28;20118;-77
2023/03/24 00:49:10;;;;;;;25.35;14.15;;;;;;;9.37;65.91;95302.47;4970482;28;20049;-77
2023/03/24 00:51:42;;;;;;;28.10;14.52;;;;;;;9.54;65.94;95323.38;4972690;28;20484;-77
2023/03/24 00:54:11;;;;;;;25.95;14.63;;;;;;;9.47;65.68;95326.28;4971695;28;20042;-77
2023/03/24 00:56:39;;;;;;;25.90;14.70;;;;;;;9.44;66.03;95334.78;4976088;28;20139;-77
2023/03/24 00:59:08;;;;;;;36.90;17.10;;;;;;;9.36;66.38;95331.84;4986985;28;20046;-77
2023/03/24 01:01:36;;;;;;;31.83;15.95;;;;;;;9.31;66.83;95323.91;4975696;28;20076;-77
2023/03/24 01:04:05;;;;;;;30.45;15.70;;;;;;;9.14;67.79;95327.56;4973092;28;20042;-77
2023/03/24 01:06:31;;;;;;;28.80;16.95;;;;;;;8.88;68.51;95328.50;4965906;28;20477;-77
2023/03/24 01:08:57;;;;;;;32.45;17.63;;;;;;;8.45;70.35;95327.00;4983323;28;20104;-77
2023/03/24 01:11:26;;;;;;;35.20;16.88;;;;;;;8.52;70.12;95323.06;4981603;28;20062;-77
2023/03/24 01:13:53;;;;;;;32.72;18.05;;;;;;;8.64;69.62;95329.97;4984404;28;20149;-77
2023/03/24 01:16:24;;;;;;;30.27;18.35;;;;;;;8.65;69.67;95331.59;4993943;28;20030;-77
2023/03/24 01:18:51;;;;;;;35.75;18.52;;;;;;;8.73;69.33;95337.19;4974431;28;20031;-77
2023/03/24 01:21:18;;;;;;;34.70;18.70;;;;;;;8.78;68.84;95320.53;4993229;28;20037;-77
2023/03/24 01:23:46;;;;;;;36.50;19.65;;;;;;;8.68;68.98;95325.78;4975021;28;20089;-77
2023/03/24 01:26:13;;;;;;;34.22;18.50;;;;;;;8.46;68.58;95263.31;4975581;28;20065;-77
2023/03/24 01:28:42;;;;;;;38.67;19.65;;;;;;;8.86;68.26;95320.03;4972541;28;20031;-77
2023/03/24 01:31:11;;;;;;;32.47;17.85;;;;;;;8.85;68.23;95326.38;4991865;28;20038;-77
2023/03/24 01:33:38;;;;;;;34.50;17.63;;;;;;;8.90;68.22;95313.97;4971335;28;20030;-77
2023/03/24 01:36:05;;;;;;;37.05;19.48;;;;;;;8.92;68.02;95318.22;4980800;28;20177;-77
2023/03/24 01:38:31;;;;;;;37.08;19.13;;;;;;;8.91;67.47;95314.78;4975081;28;20045;-77
2023/03/24 01:40:58;;;;;;;38.95;18.38;;;;;;;8.79;67.55;95291.19;4971923;28;20468;-77
2023/03/24 01:43:29;;;;;;;34.70;19.52;;;;;;;8.92;67.46;95321.66;4984792;28;20104;-77
2023/03/24 01:46:16;;;;;;;34.05;18.52;;;;;;;8.82;67.29;95303.09;4985952;28;20041;-77
2023/03/24 01:48:42;;;;;;;36.88;18.70;;;;;;;8.87;67.19;95317.13;4973129;28;20428;-77
2023/03/24 01:51:20;;;;;;;34.38;17.65;;;;;;;8.82;67.55;95318.97;4975244;28;20041;-77
2023/03/24 01:53:53;;;;;;;37.05;18.45;;;;;;;8.73;67.24;95313.38;4974335;28;20038;-77
2023/03/24 01:56:21;;;;;;;42.22;19.63;;;;;;;8.73;67.13;95323.16;4974658;28;20096;-77
2023/03/24 01:58:56;;;;;;;44.38;20.33;;;;;;;8.71;67.95;95320.75;4974844;28;20045;-77
2023/03/24 02:01:28;;;;;;;40.70;18.30;;;;;;;8.35;67.88;95269.59;4971643;28;20041;-77
2023/03/24 02:03:57;;;;;;;36.53;19.73;;;;;;;8.66;68.06;95323.41;4984213;28;20101;-77
2023/03/24 02:06:25;;;;;;;36.85;19.23;;;;;;;8.62;67.76;95332.88;4974738;28;20038;-77
2023/03/24 02:08:57;;;;;;;38.00;19.27;;;;;;;8.65;67.68;95329.72;4988102;28;20096;-77
2023/03/24 02:11:25;;;;;;;;;;;;;;;8.47;68.44;95330.16;4972995;28;20610;-77
2023/03/24 02:13:51;;;;;;;38.65;19.20;;;;;;;8.26;68.10;95302.00;4974108;28;20307;-78
2023/03/24 02:16:40;;;;;;;37.13;19.92;;;;;;;7.83;67.87;95243.09;4974323;28;20038;-78
2023/03/24 02:19:11;;;;;;;35.58;19.27;;;;;;;8.42;68.00;95332.78;4971419;28;20070;-77
2023/03/24 02:22:02;;;;;;;39.33;20.35;;;;;;;8.34;68.30;95334.06;4982145;28;20037;-77
2023/03/24 02:24:46;;;;;;;41.40;19.85;;;;;;;8.31;68.50;95337.22;4973954;28;20072;-77
2023/03/24 02:27:42;;;;;;;35.75;21.02;;;;;;;8.31;68.70;95331.16;4992163;28;20038;-77
2023/03/24 02:30:39;;;;;;;35.53;20.98;;;;;;;8.26;68.50;95333.69;4975755;28;20058;-76
2023/03/24 02:33:07;;;;;;;35.45;20.20;;;;;;;8.21;68.73;95326.56;4970873;28;20098;-77
2023/03/24 02:36:06;;;;;;;41.28;21.15;;;;;;;8.23;68.70;95334.22;4983190;28;20106;-77
2023/03/24 02:38:50;;;;;;;41.05;20.92;;;;;;;8.17;68.11;95327.28;4991478;28;20053;-76
2023/03/24 02:41:40;;;;;;;41.38;20.85;;;;;;;8.05;68.47;95323.00;4989464;28;20088;-76
2023/03/24 02:44:10;;;;;;;35.80;20.33;;;;;;;7.90;68.82;95311.53;4991463;28;20050;-77
2023/03/24 02:46:52;;;;;;;38.47;20.98;;;;;;;7.74;68.82;95279.75;4991451;28;20030;-77
2023/03/24 02:49:28;;;;;;;;;;;;;;;7.94;69.08;95309.97;4974618;28;20034;-77
2023/03/24 02:52:11;;;;;;;35.22;20.27;;;;;;;7.93;69.12;95301.28;4991894;28;19918;-77
2023/03/24 02:54:50;;;;;;;40.13;20.30;;;;;;;7.82;68.75;95278.47;4990948;28;20141;-77
2023/03/24 02:57:19;;;;;;;44.40;20.98;;;;;;;7.86;69.22;95305.19;4956648;28;20038;-77
2023/03/24 03:00:07;;;;;;;39.90;19.98;;;;;;;7.81;69.55;95302.50;4990765;28;20112;-77
2023/03/24 03:02:38;;;;;;;46.35;21.60;;;;;;;7.86;69.50;95307.81;4991187;28;20080;-77
2023/03/24 03:05:12;;;;;;;43.47;20.85;;;;;;;7.69;69.53;95269.16;4973450;28;20034;-77
2023/03/24 03:07:40;;;;;;;50.63;22.85;;;;;;;7.50;69.75;95243.38;5002785;28;20045;-77
2023/03/24 03:10:25;;;;;;;41.60;22.05;;;;;;;7.85;69.71;95299.09;4996372;28;20038;-76
2023/03/24 03:12:58;;;;;;;48.00;22.08;;;;;;;7.86;69.43;95300.66;4973389;28;20417;-77
2023/03/24 03:15:47;;;;;;;49.55;21.92;;;;;;;7.90;69.56;95296.50;4970307;28;20125;-77
2023/03/24 03:18:32;;;;;;;47.25;21.63;;;;;;;7.92;69.56;95297.03;4990426;28;20390;-77
2023/03/24 03:21:07;;;;;;;39.75;21.10;;;;;;;7.41;69.53;95210.59;4990887;28;20117;-77
2023/03/24 03:23:44;;;;;;;41.35;23.05;;;;;;;7.50;69.84;95246.81;4991248;28;20034;-77
2023/03/24 03:26:15;;;;;;;41.30;22.23;;;;;;;7.74;69.45;95269.19;4972340;28;20512;-77
2023/03/24 03:28:48;;;;;;;39.65;21.05;;;;;;;7.94;69.66;95294.13;4973140;28;20128;-77
2023/03/24 03:31:17;;;;;;;42.15;22.02;;;;;;;7.70;69.31;95235.63;4991309;28;20034;-77
2023/03/24 03:33:54;;;;;;;43.88;21.98;;;;;;;7.97;69.64;95283.06;4991272;28;20031;-77
2023/03/24 03:36:51;;;;;;;43.30;21.17;;;;;;;7.64;69.33;95224.22;4969535;28;20190;-77
2023/03/24 03:39:36;;;;;;;44.65;21.95;;;;;;;7.84;69.42;95249.19;4963426;28;20531;-77
2023/03/24 03:42:03;;;;;;;38.78;20.23;;;;;;;7.63;69.93;95242.94;4990713;28;20607;-77
2023/03/24 03:44:30;;;;;;;37.95;21.15;;;;;;;7.34;69.68;95194.97;4973203;28;20104;-77
2023/03/24 03:46:55;;;;;;;37.33;21.40;;;;;;;7.62;69.72;95242.19;4989976;28;20049;-76
2023/03/24 03:49:21;;;;;;;56.95;23.48;;;;;;;7.75;69.79;95273.41;4990497;28;20038;-77
2023/03/24 03:51:49;;;;;;;50.60;22.70;;;;;;;7.69;70.66;95281.56;4972501;28;20038;-77
2023/03/24 03:54:15;;;;;;;54.75;22.10;;;;;;;7.72;69.63;95273.13;4990221;28;20779;-77
2023/03/24 03:56:41;;;;;;;40.03;22.55;;;;;;;6.96;69.79;95151.94;4972399;28;20040;-76
2023/03/24 03:59:21;;;;;;;40.38;21.10;;;;;;;7.95;69.84;95306.28;4989760;28;20064;-76
2023/03/24 04:01:47;;;;;;;42.22;22.05;;;;;;;7.51;69.68;95231.78;4990440;28;20034;-76
2023/03/24 04:04:28;;;;;;;37.80;21.48;;;;;;;7.96;69.92;95305.25;4990250;28;20093;-76
2023/03/24 04:07:38;;;;;;;37.88;20.77;;;;;;;7.99;69.56;95315.31;4969702;28;20043;-76
2023/03/24 04:10:25;;;;;;;49.08;22.67;;;;;;;7.95;69.58;95312.38;4993220;28;20100;-76
2023/03/24 04:13:19;;;;;;;43.03;22.25;;;;;;;8.01;69.90;95313.22;4994245;28;20046;-76
2023/03/24 04:15:50;;;;;;;44.75;22.42;;;;;;;7.86;69.33;95294.63;4964716;28;20050;-77
2023/03/24 04:18:47;;;;;;;39.92;21.63;;;;;;;7.63;69.31;95266.69;4993032;28;20097;-77
2023/03/24 04:21:50;;;;;;;52.03;22.85;;;;;;;7.95;69.28;95322.94;4994246;28;20039;-76
2023/03/24 04:24:25;;;;;;;40.03;21.40;;;;;;;7.90;69.06;95316.81;4953087;28;20038;-76
2023/03/24 04:27:08;;;;;;;40.80;22.90;;;;;;;7.92;69.25;95317.38;4972643;28;20046;-76
2023/03/24 04:30:07;;;;;;;43.50;22.23;;;;;;;7.89;69.19;95310.75;4984165;28;20121;-76
2023/03/24 04:32:45;;;;;;;44.60;22.10;;;;;;;7.82;69.52;95322.56;4972799;28;20051;-76
2023/03/24 04:35:30;;;;;;;45.75;23.10;;;;;;;7.26;69.43;95233.16;4993780;28;20450;-76
2023/03/24 04:38:01;;;;;;;43.80;22.45;;;;;;;7.80;69.66;95325.44;4974694;28;20050;-76
2023/03/24 04:40:31;;;;;;;40.75;21.73;;;;;;;7.82;69.20;95327.84;4971049;28;20035;-76
2023/03/24 04:43:00;;;;;;;47.00;21.23;;;;;;;7.39;69.30;95265.47;4964880;28;20034;-76
2023/03/24 04:45:26;;;;;;;39.95;21.88;;;;;;;7.15;69.17;95234.13;4974506;28;20065;-76
2023/03/24 04:47:57;;;;;;;41.38;22.58;;;;;;;7.57;69.45;95307.31;5003059;28;20129;-76
2023/03/24 04:50:35;;;;;;;42.67;22.75;;;;;;;7.64;69.17;95329.00;5004682;28;20061;-76
2023/03/24 04:53:01;;;;;;;53.42;24.88;;;;;;;7.68;69.42;95353.88;4993094;28;20412;-76
2023/03/24 04:55:45;;;;;;;47.58;25.92;;;;;;;7.71;69.45;95343.59;4976018;28;20038;-76
2023/03/24 04:58:10;;;;;;;46.63;26.13;;;;;;;7.07;68.86;95239.06;4991869;28;20042;-76
2023/03/24 05:00:36;;;;;;;48.78;25.50;;;;;;;7.55;69.02;95328.66;4988813;28;20131;-76
2023/03/24 05:03:02;;;;;;;49.17;25.92;;;;;;;7.43;69.00;95312.19;4991423;28;20390;-76
2023/03/24 05:05:28;;;;;;;46.90;24.75;;;;;;;7.43;68.96;95300.84;4991524;28;20018;-76
2023/03/24 05:07:55;;;;;;;49.78;24.38;;;;;;;7.61;68.71;95322.41;4987385;28;20034;-76
2023/03/24 05:10:21;;;;;;;46.42;21.35;;;;;;;7.62;68.65;95341.69;4970626;28;20464;-76
2023/03/24 05:12:47;;;;;;;31.98;17.35;;;;;;;7.73;68.41;95349.44;4990394;28;20062;-78
2023/03/24 05:15:13;;;;;;;40.65;17.52;;;;;;;7.53;68.67;95317.59;4972379;28;20124;-76
2023/03/24 05:17:38;;;;;;;35.03;16.88;;;;;;;7.64;68.36;95335.09;4987410;28;20034;-77
2023/03/24 05:20:10;;;;;;;24.08;12.32;;;;;;;7.16;67.65;95253.41;4990484;28;20104;-77
2023/03/24 05:22:37;;;;;;;23.45;11.43;;;;;;;7.55;67.64;95312.81;4969725;28;20386;-76
2023/03/24 05:25:03;;;;;;;20.98;11.88;;;;;;;7.37;67.49;95289.47;4966730;28;20034;-77
2023/03/24 05:27:29;;;;;;;19.85;10.52;;;;;;;7.28;67.12;95272.50;4969270;28;20461;-77
2023/03/24 05:29:54;;;;;;;19.35;11.55;;;;;;;7.44;66.90;95300.59;4963964;28;20101;-77
2023/03/24 05:32:20;;;;;;;23.00;11.55;;;;;;;7.30;66.35;95265.13;4958717;28;20117;-77
2023/03/24 05:34:45;;;;;;;30.08;12.50;;;;;;;7.37;65.95;95281.56;4982745;28;20034;-78
2023/03/24 05:37:13;;;;;;;27.42;11.85;;;;;;;7.67;65.83;95336.44;4923992;28;1228379;-77
2023/03/24 05:39:39;;;;;;;27.73;12.88;;;;;;;7.71;65.68;95329.59;4962168;28;20540;-78
2023/03/24 05:42:05;;;;;;;25.10;12.32;;;;;;;7.54;65.95;95311.25;4960317;28;20039;-78
2023/03/24 05:44:31;;;;;;;23.38;12.82;;;;;;;8.01;65.56;95364.16;4965647;28;20030;-78
2023/03/24 05:46:56;;;;;;;22.98;12.48;;;;;;;8.01;65.72;95363.41;4964373;28;20549;-77
2023/03/24 05:49:21;;;;;;;33.20;12.13;;;;;;;7.44;65.46;95276.06;4962430;28;20039;-78
2023/03/24 05:51:47;;;;;;;28.02;12.38;;;;;;;7.49;65.17;95266.34;4965515;28;20027;-78
2023/03/24 05:54:13;;;;;;;25.63;13.25;;;;;;;8.23;64.90;95365.94;4966194;28;20035;-79
2023/03/24 05:56:38;;;;;;;27.88;13.00;;;;;;;7.81;64.74;95303.28;4963344;28;20121;-78
2023/03/24 05:59:04;;;;;;;23.25;13.20;;;;;;;8.04;65.25;95331.19;4967166;28;20085;-79
2023/03/24 06:01:29;;;;;;;30.67;14.13;;;;;;;7.75;64.83;95280.53;4961501;28;20026;-79
2023/03/24 06:03:55;;;;;;;35.30;15.98;;;;;;;8.13;64.49;95335.75;4961260;28;20125;-80
2023/03/24 06:06:22;;;;;;;32.95;15.25;;;;;;;8.05;64.75;95309.81;4961697;28;20037;-81
2023/03/24 06:08:48;;;;;;;31.33;15.27;;;;;;;8.08;64.79;95327.00;4959434;28;20034;-79
2023/03/24 06:11:17;;;;;;;42.63;17.08;;;;;;;8.41;65.18;95368.97;4961071;28;20580;-81
2023/03/24 06:13:43;;;;;;;31.65;15.68;;;;;;;8.09;64.63;95307.44;4960906;28;20038;-79
2023/03/24 06:16:08;;;;;;;36.00;16.63;;;;;;;8.03;64.79;95301.34;4962921;28;20031;-80
2023/03/24 06:18:34;;;;;;;35.30;17.42;;;;;;;7.64;65.28;95237.44;4969872;28;20037;-80
2023/03/24 06:20:59;;;;;;;38.53;18.05;;;;;;;7.71;64.81;95231.91;4965036;28;20104;-79
2023/03/24 06:23:26;;;;;;;37.95;18.20;;;;;;;8.62;64.49;95367.25;4952931;28;20042;-81
2023/03/24 06:25:53;;;;;;;41.38;17.50;;;;;;;8.27;64.73;95301.75;4957277;28;20458;-78
2023/03/24 06:28:19;;;;;;;31.58;17.05;;;;;;;8.78;64.55;95370.78;4958695;28;20053;-80
2023/03/24 06:30:45;;;;;;;40.28;18.73;;;;;;;8.74;64.34;95345.91;4960957;28;20035;-78
2023/03/24 06:33:12;;;;;;;36.95;18.10;;;;;;;8.25;64.35;95288.00;4963372;28;20058;-79
2023/03/24 06:35:38;;;;;;;37.08;20.10;;;;;;;7.92;65.07;95264.56;4974013;28;20035;-76
2023/03/24 06:38:04;;;;;;;36.03;19.00;;;;;;;8.29;64.62;95286.44;4978778;28;20249;-79
2023/03/24 06:40:30;;;;;;;42.30;20.75;;;;;;;8.42;64.67;95325.66;4966310;28;20529;-77
2023/03/24 06:42:56;;;;;;;38.70;19.77;;;;;;;8.49;64.22;95314.84;4982770;28;20034;-76
2023/03/24 06:45:22;;;;;;;50.33;21.35;;;;;;;8.68;64.41;95334.53;4981080;28;20417;-77
2023/03/24 06:47:47;;;;;;;51.97;20.20;;;;;;;8.12;64.52;95236.41;4982550;28;21288;-77
2023/03/24 06:50:13;;;;;;;47.13;20.15;;;;;;;8.46;64.20;95296.88;4977966;28;20106;-77
2023/03/24 06:52:40;;;;;;;45.05;21.00;;;;;;;8.98;64.71;95372.72;4981088;28;20038;-78
2023/03/24 06:55:07;;;;;;;41.17;20.95;;;;;;;8.79;64.05;95330.06;4978161;28;20030;-78
2023/03/24 06:57:32;;;;;;;41.42;19.67;;;;;;;8.87;64.21;95356.81;4980148;28;20136;-76
2023/03/24 06:59:58;;;;;;;37.22;20.95;;;;;;;8.32;64.05;95243.66;4978945;28;20505;-78
2023/03/24 07:02:23;;;;;;;45.80;22.08;;;;;;;9.17;63.99;95377.28;4980911;28;20029;-85
2023/03/24 07:04:52;;;;;;;56.47;22.38;;;;;;;8.68;64.84;95310.72;4962699;28;20089;-77
2023/03/24 07:07:21;;;;;;;45.42;22.45;;;;;;;8.44;65.21;95305.06;4961112;28;20133;-77
2023/03/24 07:09:46;;;;;;;41.08;20.67;;;;;;;8.69;66.05;95341.41;4955257;28;20030;-77
2023/03/24 07:12:12;;;;;;;50.70;21.73;;;;;;;8.98;65.49;95385.97;4958750;28;20512;-78
2023/03/24 07:14:37;;;;;;;45.70;21.98;;;;;;;8.85;66.03;95366.03;4976969;28;20037;-79
2023/03/24 07:17:03;;;;;;;45.10;20.58;;;;;;;9.00;66.02;95367.97;4979642;28;20429;-78
2023/03/24 07:19:28;;;;;;;50.50;20.30;;;;;;;8.64;65.79;95290.31;4965655;28;20034;-78
2023/03/24 07:21:54;;;;;;;46.08;22.70;;;;;;;8.96;64.96;95333.31;4964686;28;20116;-79
2023/03/24 07:24:19;;;;;;;45.63;23.27;;;;;;;9.35;65.12;95391.91;4958555;28;20151;-77
2023/03/24 07:26:45;;;;;;;45.17;22.63;;;;;;;9.53;65.05;95393.31;4960541;28;20045;-78
2023/03/24 07:29:17;;;;;;;47.50;23.88;;;;;;;8.92;65.26;95311.09;4960400;28;20269;-77
2023/03/24 07:31:43;;;;;;;44.00;22.65;;;;;;;9.28;65.21;95354.31;4958709;28;20034;-77
2023/03/24 07:34:09;;;;;;;50.40;23.30;;;;;;;9.28;64.98;95346.38;4975802;28;20023;-77
2023/03/24 07:36:34;;;;;;;48.92;25.23;;;;;;;8.80;64.78;95270.81;4978506;28;20197;-77
2023/03/24 07:39:09;;;;;;;41.95;21.65;;;;;;;9.54;64.68;95384.28;4966854;28;20093;-77
2023/03/24 07:41:35;;;;;;;60.83;21.83;;;;;;;9.15;65.14;95336.28;4979834;28;20034;-78
2023/03/24 07:44:00;;;;;;;52.67;22.25;;;;;;;9.28;64.56;95310.13;4963243;28;20030;-77
2023/03/24 07:46:25;;;;;;;53.28;23.33;;;;;;;9.61;64.65;95345.91;4980589;28;20034;-77
2023/03/24 07:48:52;;;;;;;43.53;23.58;;;;;;;9.31;64.55;95268.31;4978871;28;20038;-78
2023/03/24 07:51:19;;;;;;;46.10;22.88;;;;;;;9.94;63.87;95352.56;4976432;28;20042;-78
2023/03/24 07:53:46;;;;;;;45.30;22.50;;;;;;;9.06;63.98;95235.47;4975801;28;20026;-78
2023/03/24 07:56:14;;;;;;;43.90;22.85;;;;;;;10.07;63.43;95361.81;4974244;28;20035;-78
2023/03/24 07:58:40;;;;;;;37.60;21.73;;;;;;;9.88;63.23;95321.84;4986691;28;20181;-77
2023/03/24 08:01:11;;;;;;;41.13;20.55;;;;;;;10.18;63.02;95357.34;4978902;28;20632;-79
2023/03/24 08:03:39;;;;;;;46.40;22.65;;;;;;;9.60;62.62;95270.19;4964837;28;20408;-83
2023/03/24 08:06:05;;;;;;;39.25;21.55;;;;;;;10.31;62.80;95362.09;4960960;28;20050;-77
2023/03/24 08:08:33;;;;;;;45.17;22.38;;;;;;;10.22;62.93;95355.78;4958803;28;20533;-78
2023/03/24 08:10:59;;;;;;;42.95;21.52;;;;;;;9.63;62.37;95237.88;4977102;28;20030;-77
2023/03/24 08:13:25;;;;;;;46.70;23.75;;;;;;;10.42;63.00;95356.53;4953002;28;20595;-78
2023/03/24 08:15:52;;;;;;;46.63;22.58;;;;;;;10.30;62.28;95353.34;4976439;28;20061;-77
2023/03/24 08:18:33;;;;;;;47.50;22.73;;;;;;;10.31;62.70;95340.91;4954285;28;20034;-78
2023/03/24 08:21:00;;;;;;;42.60;22.20;;;;;;;9.91;61.90;95259.59;4976068;28;20026;-78
2023/03/24 08:23:26;;;;;;;36.33;21.25;;;;;;;10.02;61.47;95263.78;4978678;28;20034;-78
2023/03/24 08:25:51;;;;;;;39.17;20.25;;;;;;;10.17;61.18;95265.63;4975921;28;20615;-79
2023/03/24 08:28:17;;;;;;;44.00;18.85;;;;;;;10.51;60.57;95279.09;4960769;28;20791;-78
2023/03/24 08:30:43;;;;;;;30.98;18.08;;;;;;;9.83;60.44;95202.66;4975060;28;20389;-78
2023/03/24 08:33:11;;;;;;;35.58;21.98;;;;;;;10.84;60.36;95344.75;4971616;28;20076;-78
2023/03/24 08:35:37;;;;;;;36.95;23.20;;;;;;;10.76;60.68;95326.75;4973503;28;20457;-78
2023/03/24 08:38:03;;;;;;;41.15;23.38;;;;;;;10.19;62.01;95251.09;4953760;28;20089;-78
2023/03/24 08:40:30;;;;;;;42.53;25.40;;;;;;;10.94;61.08;95331.47;4976548;28;20164;-79
2023/03/24 08:42:58;;;;;;;48.75;22.10;;;;;;;11.13;60.26;95321.84;4955914;28;20038;-78
2023/03/24 08:45:27;;;;;;;56.15;23.13;;;;;;;10.27;60.49;95175.53;4971707;28;20022;-79
2023/03/24 08:47:54;;;;;;;39.80;21.52;;;;;;;11.30;59.86;95320.66;4977096;28;20700;-78
2023/03/24 08:50:22;;;;;;;49.92;25.38;;;;;;;10.71;60.33;95240.03;4975979;28;20393;-77
2023/03/24 08:52:49;;;;;;;53.50;24.10;;;;;;;10.99;59.89;95266.94;4954343;28;20035;-80
2023/03/24 08:55:18;;;;;;;40.92;22.40;;;;;;;11.20;58.84;95273.75;4963137;28;20049;-79
2023/03/24 08:57:45;;;;;;;40.38;22.17;;;;;;;11.55;59.60;95308.03;4984911;28;20038;-81
2023/03/24 09:00:14;;;;;;;45.42;22.63;;;;;;;11.45;60.36;95286.84;4967656;28;20314;-78
2023/03/24 09:02:53;;;;;;;43.25;23.55;;;;;;;11.63;59.63;95289.94;4979127;28;20778;-77
2023/03/24 09:05:20;;;;;;;40.67;22.17;;;;;;;11.42;59.57;95234.31;4976439;28;20491;-77
2023/03/24 09:07:46;;;;;;;38.72;22.58;;;;;;;11.47;59.12;95228.94;4982567;28;20763;-76
2023/03/24 09:10:13;;;;;;;39.60;22.55;;;;;;;11.61;58.44;95229.91;4979075;28;20034;-76
2023/03/24 09:12:39;;;;;;;45.80;24.38;;;;;;;12.05;59.03;95294.69;4979091;28;20037;-77
2023/03/24 09:15:08;;;;;;;47.15;25.30;;;;;;;12.06;59.17;95290.94;4976879;28;20046;-76
2023/03/24 09:17:34;;;;;;;49.13;24.58;;;;;;;11.55;60.12;95207.13;4946204;28;20042;-77
2023/03/24 09:19:59;;;;;;;51.97;25.27;;;;;;;11.98;59.48;95249.81;4976659;28;20041;-76
2023/03/24 09:22:25;;;;;;;42.50;23.52;;;;;;;12.07;58.73;95237.50;4984454;28;20516;-76
2023/03/24 09:24:50;;;;;;;43.85;24.30;;;;;;;12.30;57.67;95278.47;4981563;28;20034;-76
2023/03/24 09:27:16;;;;;;;40.80;23.55;;;;;;;12.26;57.89;95270.28;4984235;28;20344;-77
2023/03/24 09:29:42;;;;;;;47.80;23.33;;;;;;;11.77;57.67;95166.03;4976874;28;20042;-76
2023/03/24 09:32:07;;;;;;;51.55;24.02;;;;;;;12.47;57.66;95272.72;4980706;28;20097;-76
2023/03/24 09:34:33;;;;;;;42.63;23.65;;;;;;;12.01;57.06;95182.81;4980113;28;20476;-76
2023/03/24 09:37:01;;;;;;;43.10;23.35;;;;;;;12.31;56.55;95227.69;4967544;28;20065;-76
2023/03/24 09:39:27;;;;;;;46.28;24.30;;;;;;;12.55;55.80;95262.25;4979386;28;20030;-79
2023/03/24 09:41:54;;;;;;;46.60;23.05;;;;;;;12.59;56.02;95260.59;4972764;28;20038;-79
2023/03/24 09:44:29;;;;;;;42.08;22.85;;;;;;;12.71;55.88;95255.69;4964079;28;20141;-78
2023/03/24 09:47:23;;;;;;;40.50;23.17;;;;;;;12.56;56.25;95225.81;4980750;28;20073;-78
2023/03/24 09:49:51;;;;;;;46.63;22.17;;;;;;;12.44;55.81;95178.31;4981504;28;20137;-76
2023/03/24 09:52:23;;;;;;;45.58;22.67;;;;;;;12.87;55.78;95221.69;4975247;28;20038;-79
2023/03/24 09:55:01;;;;;;;45.90;23.35;;;;;;;13.00;56.06;95217.53;4983558;28;20046;-78
2023/03/24 09:57:35;;;;;;;42.38;22.48;;;;;;;13.11;55.69;95233.09;4985961;28;20027;-77
2023/03/24 10:00:22;;;;;;;44.78;21.90;;;;;;;12.92;55.14;95197.66;4976546;28;20117;-79
2023/03/24 10:02:48;;;;;;;39.25;21.80;;;;;;;13.15;54.47;95222.66;4972811;28;20109;-77
2023/03/24 10:05:37;;;;;;;40.08;20.23;;;;;;;12.99;53.82;95191.97;4965179;28;20506;-78
2023/03/24 10:08:20;;;;;;;32.13;18.02;;;;;;;13.82;52.79;95224.03;4982131;28;20034;-79
2023/03/24 10:11:03;;;;;;;40.40;19.35;;;;;;;14.72;49.75;95225.34;4977414;28;20049;-80
2023/03/24 10:14:06;;;;;;;36.15;17.92;;;;;;;15.80;47.04;95228.81;4978372;28;20034;-79
2023/03/24 10:16:45;;;;;;;30.90;16.80;;;;;;;15.80;47.04;95228.81;4980123;28;20046;-81
2023/03/24 10:19:52;;;;;;;31.08;15.65;;;;;;;18.40;40.27;95212.88;4977775;28;20045;-78
2023/03/24 10:22:24;;;;;;;31.88;17.27;;;;;;;19.90;38.58;95214.03;4983169;28;20057;-78
2023/03/24 10:25:30;;;;;;;38.50;17.10;;;;;;;20.51;36.01;95158.41;4979498;28;20042;-78
2023/03/24 10:28:00;;;;;;;22.23;14.30;;;;;;;21.23;33.98;95113.63;4981112;28;20035;-77
2023/03/24 10:30:30;;;;;;;25.23;15.05;;;;;;;22.09;32.95;95149.94;4979711;28;20551;-79
2023/03/24 10:32:57;;;;;;;22.63;13.93;;;;;;;22.28;32.84;95114.91;4976993;28;20065;-87
2023/03/24 10:35:34;;;;;;;26.02;14.32;;;;;;;22.69;32.09;95137.09;4961576;28;20405;-79
2023/03/24 10:38:04;;;;;;;25.38;15.35;;;;;;;23.12;32.72;95157.00;4977625;28;20493;-79
2023/03/24 10:40:32;;;;;;;26.00;14.35;;;;;;;23.38;30.71;95117.38;4980120;28;20034;-78
2023/03/24 10:42:58;;;;;;;24.50;12.20;;;;;;;22.84;29.59;95114.69;4982800;28;20034;-78
2023/03/24 10:45:35;;;;;;;22.83;12.23;;;;;;;23.66;28.85;95175.97;4981517;28;20038;-78
2023/03/24 10:48:03;;;;;;;18.02;10.82;;;;;;;23.61;29.12;95160.00;4982425;28;20058;-79
2023/03/24 10:50:31;;;;;;;21.08;11.55;;;;;;;24.38;28.50;95192.44;4980049;28;20041;-78
2023/03/24 10:52:56;;;;;;;19.23;11.82;;;;;;;24.14;28.03;95121.16;4968571;28;20151;-80
2023/03/24 10:55:30;;;;;;;25.00;12.82;;;;;;;24.06;29.03;95145.78;4987112;28;20148;-79
2023/03/24 10:58:02;;;;;;;18.27;11.45;;;;;;;23.81;28.11;95129.06;4986558;28;20195;-80
2023/03/24 11:00:30;;;;;;;16.63;9.85;;;;;;;24.43;27.45;95182.09;4981694;28;20046;-84
2023/03/24 11:02:59;;;;;;;20.52;9.63;;;;;;;23.99;26.90;95053.56;4965774;28;20522;-80
2023/03/24 11:05:32;;;;;;;23.33;12.23;;;;;;;24.61;27.91;95187.81;4981491;28;20060;-80
2023/03/24 11:08:13;;;;;;;20.52;10.60;;;;;;;23.72;29.26;95156.41;4944278;28;20034;-84
2023/03/24 11:10:39;;;;;;;21.38;11.05;;;;;;;23.55;28.53;95059.38;4979406;28;20042;-86
2023/03/24 11:13:15;;;;;;;23.90;9.77;;;;;;;24.34;27.49;95180.75;4966698;28;20671;-79
2023/03/24 11:15:53;;;;;;;16.73;10.40;;;;;;;23.73;27.67;95109.19;4969834;28;20070;-80
2023/03/24 11:18:19;;;;;;;28.00;10.98;;;;;;;24.16;27.49;95131.66;4972684;28;20042;-78
2023/03/24 11:21:03;;;;;;;21.08;9.63;;;;;;;23.35;28.70;95020.69;4963243;28;20041;-79
2023/03/24 11:23:36;;;;;;;16.85;8.57;;;;;;;23.02;28.33;95140.22;4974718;28;20034;-80
2023/03/24 11:26:30;;;;;;;21.73;9.18;;;;;;;23.71;27.79;95124.25;4972855;28;20113;-81
2023/03/24 11:28:59;;;;;;;15.35;8.73;;;;;;;22.76;28.12;95045.38;4979164;28;20034;-81
2023/03/24 11:31:30;;;;;;;24.27;9.95;;;;;;;23.69;27.43;95138.16;4978545;28;20038;-80
2023/03/24 11:34:00;;;;;;;20.45;9.35;;;;;;;23.78;27.52;95135.22;4979442;28;20124;-78
2023/03/24 11:36:34;;;;;;;21.35;10.55;;;;;;;23.82;28.18;95134.13;4976441;28;20144;-79
2023/03/24 11:39:10;;;;;;;19.40;8.38;;;;;;;24.10;27.75;95106.78;4976637;28;20154;-79
2023/03/24 11:41:39;;;;;;;18.52;8.98;;;;;;;24.66;27.12;95121.63;4975395;28;20049;-79
2023/03/24 11:44:23;;;;;;;23.48;9.18;;;;;;;24.66;26.74;95045.72;4977739;28;20041;-80